Queen Of Oak Bay — VG8234 — position and weather

sailwx.info

Track history (hours):
 
Tides and Currents Weather Stations Pressure Air Temp Water Temp Dewpoint Dewpoint Depression Visibility Wind Speed Wind Dir Waves Ship Positions

Queen Of Oak Bay

Last reported at 2018-Feb-19 14:30 UTC. Time now 2018-Feb-19 14:36 UTC.
Position N 49°21' W 123°19'.

Length 139 m; draft 5.6 m.

Type: Passenger vessel. MMSI: 316001257.

Date/timePositionNaut miles runAvg speedWind from/ knotsBaromVisibWave heightAir tempDewpointWater temp
2018-Feb-19 14:30N 49°21' W 123°19'2 4.1
2018-Feb-19 13:58N 49°23' W 123°16'0 0.0
2018-Feb-19 13:30N 49°23' W 123°16'0 0.0
2018-Feb-19 12:54N 49°23' W 123°16'0 0.0
2018-Feb-19 12:30N 49°23' W 123°16'0 0.0
2018-Feb-19 07:24N 49°23' W 123°16'0 0.0
2018-Feb-19 06:06N 49°23' W 123°16'0 0.0
2018-Feb-19 05:48N 49°23' W 123°16'0 0.0
2018-Feb-19 05:05N 49°23' W 123°16'0 2.4
2018-Feb-19 04:58N 49°23' W 123°16'612.5
2018-Feb-19 04:30N 49°17' W 123°19'917.2
2018-Feb-19 04:00N 49°09' W 123°20'916.2
2018-Feb-19 03:27N 49°01' W 123°14'4 8.0
2018-Feb-19 02:57N 49°00' W 123°08'0 0.0
2018-Feb-19 02:30N 49°00' W 123°08'0 0.0
2018-Feb-19 02:00N 49°00' W 123°08'0 0.0
2018-Feb-19 01:30N 49°00' W 123°08'0 0.0
2018-Feb-19 01:00N 49°00' W 123°08'0 0.0
2018-Feb-19 00:30N 49°00' W 123°08'0 0.0
2018-Feb-18 23:51N 49°00' W 123°08'0 0.0
2018-Feb-18 23:27N 49°00' W 123°08'0 0.0
2018-Feb-18 22:51N 49°00' W 123°08'0 0.0
2018-Feb-18 22:27N 49°00' W 123°08'0 0.0
2018-Feb-18 22:00N 49°00' W 123°08'0 0.0
2018-Feb-18 21:30N 49°00' W 123°08'0 0.0
2018-Feb-18 20:57N 49°00' W 123°08'0 0.0
2018-Feb-18 20:30N 49°00' W 123°08'0 0.0
2018-Feb-18 19:57N 49°00' W 123°08'0 0.0
2018-Feb-18 19:27N 49°00' W 123°08'0 0.0
2018-Feb-18 18:51N 49°00' W 123°08'0 0.0
2018-Feb-18 18:30N 49°00' W 123°08'0 0.0
2018-Feb-18 18:00N 49°00' W 123°08'0 0.0
2018-Feb-18 17:21N 49°00' W 123°08'0 0.0
2018-Feb-18 15:15N 49°00' W 123°08'0 0.0
2018-Feb-18 15:00N 49°00' W 123°08'0 0.0
2018-Feb-18 14:30N 49°00' W 123°08'0 0.0
2018-Feb-18 14:00N 49°00' W 123°08'0 0.0
2018-Feb-18 13:27N 49°00' W 123°08'0 0.0
2018-Feb-18 12:57N 49°00' W 123°08'0 0.0
2018-Feb-18 12:27N 49°00' W 123°08'0 0.0
2018-Feb-18 11:57N 49°00' W 123°08'0 0.0
2018-Feb-18 11:15N 49°00' W 123°08'0 0.0
2018-Feb-18 10:57N 49°00' W 123°08'0 0.0
2018-Feb-18 10:27N 49°00' W 123°08'0 0.0
2018-Feb-18 09:57N 49°00' W 123°08'0 0.0
2018-Feb-18 09:27N 49°00' W 123°08'0 0.0
2018-Feb-18 08:57N 49°00' W 123°08'0 0.0
2018-Feb-18 08:30N 49°00' W 123°08'0 0.0
2018-Feb-18 08:00N 49°00' W 123°08'0 0.0
2018-Feb-18 07:15N 49°00' W 123°08'0 0.0
2018-Feb-18 06:48N 49°00' W 123°08'0 0.0
2018-Feb-18 06:30N 49°00' W 123°08'0 0.0
2018-Feb-18 06:00N 49°00' W 123°08'0 0.0
2018-Feb-18 05:27N 49°00' W 123°08'0 0.0
2018-Feb-18 05:00N 49°00' W 123°08'0 0.0
2018-Feb-18 04:30N 49°00' W 123°08'0 0.0
2018-Feb-18 04:00N 49°00' W 123°08'0 0.0
2018-Feb-18 03:30N 49°00' W 123°08'0 0.0
2018-Feb-18 02:54N 49°00' W 123°08'0 0.0
2018-Feb-18 02:30N 49°00' W 123°08'0 0.0
2018-Feb-18 02:00N 49°00' W 123°08'0 0.6
2018-Feb-18 01:31N 49°00' W 123°08'918.0
2018-Feb-18 01:00N 48°59' W 123°22'2 4.6
2018-Feb-18 00:30N 48°58' W 123°19'510.4
2018-Feb-17 23:59N 49°01' W 123°25'1020.3
2018-Feb-17 23:30N 49°09' W 123°35'612.0
2018-Feb-17 22:59N 49°14' W 123°40'918.6
2018-Feb-17 22:30N 49°17' W 123°27'611.5
2018-Feb-17 22:00N 49°16' W 123°19'918.5
2018-Feb-17 21:30N 49°06' W 123°21'816.1
2018-Feb-17 21:00N 48°60' W 123°14'4 7.9
2018-Feb-17 20:30N 49°00' W 123°08'0 0.1
2018-Feb-17 20:00N 49°00' W 123°08'5 9.8
2018-Feb-17 19:30N 49°02' W 123°15'510.1
2018-Feb-17 19:01N 49°07' W 123°17'612.2
2018-Feb-17 18:30N 49°06' W 123°08'2 3.8
2018-Feb-17 18:00N 49°07' W 123°05'0 0.3
2018-Feb-17 17:25N 49°07' W 123°05'0 0.0
2018-Feb-17 16:55N 49°07' W 123°05'0 0.0
2018-Feb-17 16:25N 49°07' W 123°05'0 0.0
2018-Feb-17 15:55N 49°07' W 123°05'0 0.0
2018-Feb-17 15:25N 49°07' W 123°05'0 0.0
2018-Feb-17 14:55N 49°07' W 123°05'0 0.0
2018-Feb-17 14:25N 49°07' W 123°05'0 0.0
2018-Feb-17 13:55N 49°07' W 123°05'0 0.0
2018-Feb-17 13:25N 49°07' W 123°05'0 0.0
2018-Feb-17 12:55N 49°07' W 123°05'0 0.0
2018-Feb-17 12:25N 49°07' W 123°05'0 0.0
2018-Feb-17 11:55N 49°07' W 123°05'0 0.0
2018-Feb-17 11:25N 49°07' W 123°05'0 0.0
2018-Feb-17 10:55N 49°07' W 123°05'0 0.0
2018-Feb-17 10:25N 49°07' W 123°05'0 0.0
2018-Feb-17 09:55N 49°07' W 123°05'0 0.0
2018-Feb-17 09:25N 49°07' W 123°05'0 0.0
2018-Feb-17 08:55N 49°07' W 123°05'0 0.0
2018-Feb-17 08:25N 49°07' W 123°05'0 0.0
2018-Feb-17 07:55N 49°07' W 123°05'0 0.0
2018-Feb-17 07:25N 49°07' W 123°05'0 0.0
2018-Feb-17 06:55N 49°07' W 123°05'0 0.0
2018-Feb-17 06:25N 49°07' W 123°05'0 0.0
2018-Feb-17 05:55N 49°07' W 123°05'0 0.0
2018-Feb-17 05:25N 49°07' W 123°05'0 0.0
2018-Feb-17 04:55N 49°07' W 123°05'0 0.0
2018-Feb-17 04:25N 49°07' W 123°05'0 0.0
2018-Feb-17 03:55N 49°07' W 123°05'0 0.0
2018-Feb-17 03:25N 49°07' W 123°05'0 0.0
2018-Feb-17 02:55N 49°07' W 123°05'0 0.0
2018-Feb-17 02:25N 49°07' W 123°05'0 0.0
2018-Feb-17 01:55N 49°07' W 123°05'0 0.0
2018-Feb-17 01:25N 49°07' W 123°05'0 0.0
2018-Feb-17 00:55N 49°07' W 123°05'0 0.0
2018-Feb-17 00:25N 49°07' W 123°05'0 0.0
2018-Feb-16 23:55N 49°07' W 123°05'0 0.0
2018-Feb-16 23:25N 49°07' W 123°05'0 0.1
2018-Feb-16 22:55N 49°07' W 123°05'0 0.0
2018-Feb-16 22:25N 49°07' W 123°05'0 0.0
2018-Feb-16 21:55N 49°07' W 123°05'0 0.0
2018-Feb-16 21:25N 49°07' W 123°05'0 0.0
2018-Feb-16 20:55N 49°07' W 123°05'0 0.0
2018-Feb-16 20:25N 49°07' W 123°05'0 0.0
2018-Feb-16 19:55N 49°07' W 123°05'0 0.0
2018-Feb-16 19:25N 49°07' W 123°05'0 0.0
2018-Feb-16 18:55N 49°07' W 123°05'0 0.0
2018-Feb-16 18:25N 49°07' W 123°05'0 0.0
2018-Feb-16 17:55N 49°07' W 123°05'0 0.0
2018-Feb-16 17:25N 49°07' W 123°05'0 0.0
2018-Feb-16 16:55N 49°07' W 123°05'0 0.0
2018-Feb-16 16:25N 49°07' W 123°05'0 0.0
2018-Feb-16 15:55N 49°07' W 123°05'0 0.0
2018-Feb-16 15:25N 49°07' W 123°05'0 0.0
2018-Feb-16 14:55N 49°07' W 123°05'0 0.0
2018-Feb-16 14:25N 49°07' W 123°05'0 0.0
2018-Feb-16 13:55N 49°07' W 123°05'0 0.0
2018-Feb-16 13:25N 49°07' W 123°05'0 0.0
2018-Feb-16 12:55N 49°07' W 123°05'0 0.0
2018-Feb-16 12:25N 49°07' W 123°05'0 0.0
2018-Feb-16 11:55N 49°07' W 123°05'0 0.0
2018-Feb-16 11:25N 49°07' W 123°05'0 0.0
2018-Feb-16 10:55N 49°07' W 123°05'0 0.0
2018-Feb-16 10:25N 49°07' W 123°05'0 0.0
2018-Feb-16 09:55N 49°07' W 123°05'0 0.0
2018-Feb-16 09:25N 49°07' W 123°05'0 0.0
2018-Feb-16 08:55N 49°07' W 123°05'0 0.0
2018-Feb-16 08:25N 49°07' W 123°05'0 0.0
2018-Feb-16 07:55N 49°07' W 123°05'0 0.0
2018-Feb-16 07:25N 49°07' W 123°05'0 0.0
2018-Feb-16 06:55N 49°07' W 123°05'0 0.0
2018-Feb-16 06:25N 49°07' W 123°05'0 0.0
2018-Feb-16 05:55N 49°07' W 123°05'0 0.0
2018-Feb-16 05:25N 49°07' W 123°05'0 0.0
2018-Feb-16 04:55N 49°07' W 123°05'0 0.0
2018-Feb-16 04:25N 49°07' W 123°05'0 0.0
2018-Feb-16 03:55N 49°07' W 123°05'0 0.0
2018-Feb-16 03:25N 49°07' W 123°05'0 0.0
2018-Feb-16 02:55N 49°07' W 123°05'0 0.0
2018-Feb-16 02:25N 49°07' W 123°05'0 0.0
2018-Feb-16 01:55N 49°07' W 123°05'0 0.0
2018-Feb-16 01:25N 49°07' W 123°05'0 0.0
2018-Feb-16 00:55N 49°07' W 123°05'0 0.0
2018-Feb-16 00:25N 49°07' W 123°05'0 0.0
2018-Feb-15 23:55N 49°07' W 123°05'0 0.1
2018-Feb-15 23:19N 49°07' W 123°05'0 0.0
2018-Feb-15 22:55N 49°07' W 123°05'0 0.1
2018-Feb-15 22:25N 49°07' W 123°05'0 0.0
2018-Feb-15 21:55N 49°07' W 123°05'0 0.0
2018-Feb-15 21:25N 49°07' W 123°05'0 0.1
2018-Feb-15 20:55N 49°07' W 123°05'0 0.1
2018-Feb-15 20:25N 49°07' W 123°05'0 0.0
2018-Feb-15 19:55N 49°07' W 123°05'0 0.0
2018-Feb-15 19:25N 49°07' W 123°05'0 0.1
2018-Feb-15 18:55N 49°07' W 123°05'0 0.0
2018-Feb-15 18:25N 49°07' W 123°05'0 0.0
2018-Feb-15 17:55N 49°07' W 123°05'0 0.0
2018-Feb-15 17:25N 49°07' W 123°05'0 0.0
2018-Feb-15 16:55N 49°07' W 123°05'0 0.1
2018-Feb-15 16:25N 49°07' W 123°05'0 0.1
2018-Feb-15 15:55N 49°07' W 123°05'0 0.0
2018-Feb-15 15:25N 49°07' W 123°05'0 0.0
2018-Feb-15 14:55N 49°07' W 123°05'0 0.0
2018-Feb-15 14:25N 49°07' W 123°05'0 0.0
2018-Feb-15 13:55N 49°07' W 123°05'0 0.0
2018-Feb-15 13:25N 49°07' W 123°05'0 0.0
2018-Feb-15 12:55N 49°07' W 123°05'0 0.0
2018-Feb-15 12:25N 49°07' W 123°05'0 0.0
2018-Feb-15 11:55N 49°07' W 123°05'0 0.0
2018-Feb-15 11:25N 49°07' W 123°05'0 0.0
2018-Feb-15 10:55N 49°07' W 123°05'0 0.0
2018-Feb-15 10:25N 49°07' W 123°05'0 0.0
2018-Feb-15 09:55N 49°07' W 123°05'0 0.0
2018-Feb-15 09:25N 49°07' W 123°05'0 0.0
2018-Feb-15 08:55N 49°07' W 123°05'0 0.0
2018-Feb-15 08:25N 49°07' W 123°05'0 0.0
2018-Feb-15 07:55N 49°07' W 123°05'0 0.0
2018-Feb-15 07:25N 49°07' W 123°05'0 0.0
2018-Feb-15 06:55N 49°07' W 123°05'0 0.0
2018-Feb-15 06:25N 49°07' W 123°05'0 0.0
2018-Feb-15 05:55N 49°07' W 123°05'0 0.0
2018-Feb-15 05:25N 49°07' W 123°05'0 0.0
2018-Feb-15 04:55N 49°07' W 123°05'0 0.0
2018-Feb-15 04:25N 49°07' W 123°05'0 0.0
2018-Feb-15 03:55N 49°07' W 123°05'0 0.0
2018-Feb-15 03:25N 49°07' W 123°05'0 0.0
2018-Feb-15 02:55N 49°07' W 123°05'0 0.0
2018-Feb-15 02:25N 49°07' W 123°05'0 0.0
2018-Feb-15 01:55N 49°07' W 123°05'0 0.0
2018-Feb-15 01:25N 49°07' W 123°05'0 0.0
2018-Feb-15 00:55N 49°07' W 123°05'0 0.0
2018-Feb-15 00:25N 49°07' W 123°05'0 0.0
2018-Feb-14 23:55N 49°07' W 123°05'0 0.0
2018-Feb-14 23:25N 49°07' W 123°05'0 0.0
2018-Feb-14 22:55N 49°07' W 123°05'0 0.1
2018-Feb-14 22:25N 49°07' W 123°05'0 0.0
2018-Feb-14 21:55N 49°07' W 123°05'0 0.0
2018-Feb-14 21:25N 49°07' W 123°05'0 0.0
2018-Feb-14 20:55N 49°07' W 123°05'0 0.0
2018-Feb-14 20:25N 49°07' W 123°05'0 0.0
2018-Feb-14 19:55N 49°07' W 123°05'0 0.0
2018-Feb-14 19:25N 49°07' W 123°05'0 0.0
2018-Feb-14 18:55N 49°07' W 123°05'0 0.0
2018-Feb-14 18:25N 49°07' W 123°05'0 0.0
2018-Feb-14 17:55N 49°07' W 123°05'0 0.0
2018-Feb-14 17:29N 49°07' W 123°05'0 0.0
2018-Feb-14 16:59N 49°07' W 123°05'0 0.0
2018-Feb-14 16:29N 49°07' W 123°05'0 0.0
2018-Feb-14 15:59N 49°07' W 123°05'0 0.0
2018-Feb-14 15:26N 49°07' W 123°05'0 0.0
2018-Feb-14 14:59N 49°07' W 123°05'0 0.0
2018-Feb-14 14:29N 49°07' W 123°05'0 0.0
2018-Feb-14 13:59N 49°07' W 123°05'0 0.0
2018-Feb-14 13:29N 49°07' W 123°05'0 0.0
2018-Feb-14 12:59N 49°07' W 123°05'0 0.0
2018-Feb-14 12:29N 49°07' W 123°05'0 0.0
2018-Feb-14 11:58N 49°07' W 123°05'0 0.0
2018-Feb-14 11:28N 49°07' W 123°05'0 0.0
2018-Feb-14 10:58N 49°07' W 123°05'0 0.0
2018-Feb-14 10:28N 49°07' W 123°05'0 0.0
2018-Feb-14 09:58N 49°07' W 123°05'0 0.0
2018-Feb-14 09:28N 49°07' W 123°05'0 0.0
2018-Feb-14 08:58N 49°07' W 123°05'0 0.0
2018-Feb-14 08:28N 49°07' W 123°05'0 0.0
2018-Feb-14 07:58N 49°07' W 123°05'0 0.0
2018-Feb-14 07:28N 49°07' W 123°05'0 0.0
2018-Feb-14 06:58N 49°07' W 123°05'0 0.0
2018-Feb-14 06:28N 49°07' W 123°05'0 0.0
2018-Feb-14 05:58N 49°07' W 123°05'0 0.0
2018-Feb-14 05:28N 49°07' W 123°05'0 0.0
2018-Feb-14 04:58N 49°07' W 123°05'0 0.0
2018-Feb-14 04:28N 49°07' W 123°05'0 0.0
2018-Feb-14 03:58N 49°07' W 123°05'0 0.0
2018-Feb-14 03:28N 49°07' W 123°05'0 0.0
2018-Feb-14 02:58N 49°07' W 123°05'0 0.0
2018-Feb-14 02:28N 49°07' W 123°05'0 0.0
2018-Feb-14 01:58N 49°07' W 123°05'0 0.0
2018-Feb-14 01:28N 49°07' W 123°05'0 0.0
2018-Feb-14 00:58N 49°07' W 123°05'0 0.0
2018-Feb-14 00:28N 49°07' W 123°05'0 0.0
2018-Feb-13 23:58N 49°07' W 123°05'0 0.0
2018-Feb-13 23:28N 49°07' W 123°05'0 0.0
2018-Feb-13 22:58N 49°07' W 123°05'0 0.0
2018-Feb-13 22:28N 49°07' W 123°05'0 0.0
2018-Feb-13 21:58N 49°07' W 123°05'0 0.0
2018-Feb-13 21:28N 49°07' W 123°05'0 0.0
2018-Feb-13 20:58N 49°07' W 123°05'0 0.0
2018-Feb-13 20:28N 49°07' W 123°05'0 0.0
2018-Feb-13 19:58N 49°07' W 123°05'0 0.0
2018-Feb-13 19:28N 49°07' W 123°05'0 0.0
2018-Feb-13 18:52N 49°07' W 123°05'0 0.0
2018-Feb-13 18:28N 49°07' W 123°05'0 0.0
2018-Feb-13 17:52N 49°07' W 123°05'0 0.0
2018-Feb-13 17:28N 49°07' W 123°05'0 0.0
2018-Feb-13 16:58N 49°07' W 123°05'0 0.0
2018-Feb-13 16:28N 49°07' W 123°05'0 0.0
2018-Feb-13 15:58N 49°07' W 123°05'0 0.0
2018-Feb-13 15:28N 49°07' W 123°05'0 0.0
2018-Feb-13 14:58N 49°07' W 123°05'0 0.0
2018-Feb-13 14:28N 49°07' W 123°05'0 0.0
2018-Feb-13 13:58N 49°07' W 123°05'0 0.0
2018-Feb-13 13:28N 49°07' W 123°05'0 0.0
2018-Feb-13 12:58N 49°07' W 123°05'0 0.0
2018-Feb-13 12:28N 49°07' W 123°05'0 0.0
2018-Feb-13 11:58N 49°07' W 123°05'0 0.0
2018-Feb-13 11:28N 49°07' W 123°05'0 0.0
2018-Feb-13 10:58N 49°07' W 123°05'0 0.0
2018-Feb-13 10:28N 49°07' W 123°05'0 0.0
2018-Feb-13 09:58N 49°07' W 123°05'0 0.0
2018-Feb-13 09:28N 49°07' W 123°05'0 0.0
2018-Feb-13 08:58N 49°07' W 123°05'0 0.0
2018-Feb-13 08:28N 49°07' W 123°05'0 0.0
2018-Feb-13 07:58N 49°07' W 123°05'0 0.0
2018-Feb-13 07:28N 49°07' W 123°05'0 0.0
2018-Feb-13 06:58N 49°07' W 123°05'0 0.0
2018-Feb-13 06:28N 49°07' W 123°05'0 0.0
2018-Feb-13 05:58N 49°07' W 123°05'0 0.0
2018-Feb-13 05:28N 49°07' W 123°05'0 0.0
2018-Feb-13 04:58N 49°07' W 123°05'0 0.0
2018-Feb-13 04:28N 49°07' W 123°05'0 0.0
2018-Feb-13 03:58N 49°07' W 123°05'0 0.0
2018-Feb-13 03:28N 49°07' W 123°05'0 0.0
2018-Feb-13 02:52N 49°07' W 123°05'0 0.0
2018-Feb-13 02:28N 49°07' W 123°05'0 0.0
2018-Feb-13 01:58N 49°07' W 123°05'0 0.0
2018-Feb-13 01:28N 49°07' W 123°05'0 0.0
2018-Feb-13 00:58N 49°07' W 123°05'0 0.0
2018-Feb-13 00:28N 49°07' W 123°05'0 0.0
2018-Feb-12 23:58N 49°07' W 123°05'0 0.0
2018-Feb-12 23:28N 49°07' W 123°05'0 0.0
2018-Feb-12 22:58N 49°07' W 123°05'0 0.0
2018-Feb-12 22:28N 49°07' W 123°05'0 0.0
2018-Feb-12 21:58N 49°07' W 123°05'0 0.0
2018-Feb-12 21:28N 49°07' W 123°05'0 0.0
2018-Feb-12 20:58N 49°07' W 123°05'0 0.0
2018-Feb-12 20:28N 49°07' W 123°05'0 0.0
2018-Feb-12 19:58N 49°07' W 123°05'0 0.0
2018-Feb-12 19:28N 49°07' W 123°05'0 0.0
2018-Feb-12 18:58N 49°07' W 123°05'0 0.0
2018-Feb-12 18:28N 49°07' W 123°05'0 0.0
2018-Feb-12 17:58N 49°07' W 123°05'0 0.0
2018-Feb-12 17:28N 49°07' W 123°05'0 0.0
2018-Feb-12 16:58N 49°07' W 123°05'0 0.0
2018-Feb-12 16:28N 49°07' W 123°05'0 0.0
2018-Feb-12 15:58N 49°07' W 123°05'0 0.0
2018-Feb-12 15:16N 49°07' W 123°05'0 0.0
2018-Feb-12 14:58N 49°07' W 123°05'0 0.0
2018-Feb-12 14:28N 49°07' W 123°05'0 0.0
2018-Feb-12 13:58N 49°07' W 123°05'0 0.0
2018-Feb-12 13:28N 49°07' W 123°05'0 0.0
2018-Feb-12 12:58N 49°07' W 123°05'0 0.0
2018-Feb-12 12:28N 49°07' W 123°05'0 0.0
2018-Feb-12 11:58N 49°07' W 123°05'0 0.0
2018-Feb-12 11:28N 49°07' W 123°05'0 0.0
2018-Feb-12 10:58N 49°07' W 123°05'0 0.0
2018-Feb-12 10:28N 49°07' W 123°05'0 0.0
2018-Feb-12 09:58N 49°07' W 123°05'0 0.0
2018-Feb-12 09:28N 49°07' W 123°05'0 0.0
2018-Feb-12 08:58N 49°07' W 123°05'0 0.0
2018-Feb-12 08:28N 49°07' W 123°05'0 0.0
2018-Feb-12 07:58N 49°07' W 123°05'0 0.0
2018-Feb-12 07:28N 49°07' W 123°05'0 0.0
2018-Feb-12 06:58N 49°07' W 123°05'0 0.0
2018-Feb-12 06:28N 49°07' W 123°05'0 0.0
2018-Feb-12 05:58N 49°07' W 123°05'0 0.0
2018-Feb-12 05:28N 49°07' W 123°05'0 0.0
2018-Feb-12 04:58N 49°07' W 123°05'0 0.0
2018-Feb-12 04:28N 49°07' W 123°05'0 0.0
2018-Feb-12 03:58N 49°07' W 123°05'0 0.0
2018-Feb-12 03:28N 49°07' W 123°05'0 0.0
2018-Feb-12 02:58N 49°07' W 123°05'0 0.0
2018-Feb-12 02:28N 49°07' W 123°05'0 0.0
2018-Feb-12 01:58N 49°07' W 123°05'0 0.0
2018-Feb-12 01:22N 49°07' W 123°05'0 0.0
2018-Feb-12 00:46N 49°07' W 123°05'0 0.0
2018-Feb-12 00:28N 49°07' W 123°05'0 0.0
2018-Feb-11 23:58N 49°07' W 123°05'0 0.0
2018-Feb-11 23:28N 49°07' W 123°05'0 0.0
2018-Feb-11 22:58N 49°07' W 123°05'0 0.0
2018-Feb-11 22:16N 49°07' W 123°05'0 0.0
2018-Feb-11 21:58N 49°07' W 123°05'0 0.0
2018-Feb-11 21:28N 49°07' W 123°05'0 0.0
2018-Feb-11 20:58N 49°07' W 123°05'0 0.0
2018-Feb-11 20:28N 49°07' W 123°05'0 0.0
2018-Feb-11 19:58N 49°07' W 123°05'0 0.0
2018-Feb-11 19:28N 49°07' W 123°05'0 0.0
2018-Feb-11 18:58N 49°07' W 123°05'0 0.0
2018-Feb-11 18:28N 49°07' W 123°05'0 0.0
2018-Feb-11 17:58N 49°07' W 123°05'0 0.0
2018-Feb-11 17:28N 49°07' W 123°05'0 0.0
2018-Feb-11 16:58N 49°07' W 123°05'0 0.0
2018-Feb-11 16:28N 49°07' W 123°05'0 0.0
2018-Feb-11 15:58N 49°07' W 123°05'0 0.0
2018-Feb-11 15:28N 49°07' W 123°05'0 0.0
2018-Feb-11 14:58N 49°07' W 123°05'0 0.0
2018-Feb-11 14:28N 49°07' W 123°05'0 0.0
2018-Feb-11 13:58N 49°07' W 123°05'0 0.0
2018-Feb-11 13:28N 49°07' W 123°05'0 0.0
2018-Feb-11 12:58N 49°07' W 123°05'0 0.0
2018-Feb-11 12:28N 49°07' W 123°05'0 0.0
2018-Feb-11 11:58N 49°07' W 123°05'0 0.0
2018-Feb-11 11:28N 49°07' W 123°05'0 0.0
2018-Feb-11 10:58N 49°07' W 123°05'0 0.0
2018-Feb-11 10:28N 49°07' W 123°05'0 0.0
2018-Feb-11 09:58N 49°07' W 123°05'0 0.0
2018-Feb-11 09:28N 49°07' W 123°05'0 0.0
2018-Feb-11 08:58N 49°07' W 123°05'0 0.0
2018-Feb-11 08:28N 49°07' W 123°05'0 0.0
2018-Feb-11 07:52N 49°07' W 123°05'0 0.0
2018-Feb-11 07:28N 49°07' W 123°05'0 0.0
2018-Feb-11 06:58N 49°07' W 123°05'0 0.0
2018-Feb-11 06:28N 49°07' W 123°05'0 0.0
2018-Feb-11 05:58N 49°07' W 123°05'0 0.0
2018-Feb-11 05:28N 49°07' W 123°05'0 0.0
2018-Feb-11 04:58N 49°07' W 123°05'0 0.0
2018-Feb-11 04:28N 49°07' W 123°05'0 0.0
2018-Feb-11 03:58N 49°07' W 123°05'0 0.0
2018-Feb-11 03:28N 49°07' W 123°05'0 0.0
2018-Feb-11 02:58N 49°07' W 123°05'0 0.0
2018-Feb-11 02:28N 49°07' W 123°05'0 0.0
2018-Feb-11 01:58N 49°07' W 123°05'0 0.0
2018-Feb-11 01:28N 49°07' W 123°05'0 0.0
2018-Feb-11 00:58N 49°07' W 123°05'0 0.0
2018-Feb-11 00:22N 49°07' W 123°05'0 0.0
2018-Feb-10 23:58N 49°07' W 123°05'0 0.0
2018-Feb-10 23:28N 49°07' W 123°05'0 0.0
2018-Feb-10 22:58N 49°07' W 123°05'0 0.0
2018-Feb-10 22:28N 49°07' W 123°05'0 0.0
2018-Feb-10 21:58N 49°07' W 123°05'0 0.0
2018-Feb-10 21:28N 49°07' W 123°05'0 0.0
2018-Feb-10 20:58N 49°07' W 123°05'0 0.0
2018-Feb-10 20:28N 49°07' W 123°05'0 0.0
2018-Feb-10 19:58N 49°07' W 123°05'0 0.0
2018-Feb-10 19:28N 49°07' W 123°05'0 0.0
2018-Feb-10 18:58N 49°07' W 123°05'0 0.0
2018-Feb-10 18:28N 49°07' W 123°05'0 0.0
2018-Feb-10 17:58N 49°07' W 123°05'0 0.0
2018-Feb-10 17:28N 49°07' W 123°05'0 0.0
2018-Feb-10 16:58N 49°07' W 123°05'0 0.0
2018-Feb-10 16:28N 49°07' W 123°05'0 0.0
2018-Feb-10 15:58N 49°07' W 123°05'0 0.0
2018-Feb-10 15:28N 49°07' W 123°05'0 0.0
2018-Feb-10 14:58N 49°07' W 123°05'0 0.0
2018-Feb-10 14:28N 49°07' W 123°05'0 0.0
2018-Feb-10 13:58N 49°07' W 123°05'0 0.0
2018-Feb-10 13:28N 49°07' W 123°05'0 0.0
2018-Feb-10 12:58N 49°07' W 123°05'0 0.0
2018-Feb-10 12:28N 49°07' W 123°05'0 0.0
2018-Feb-10 11:58N 49°07' W 123°05'0 0.0
2018-Feb-10 11:28N 49°07' W 123°05'0 0.0
2018-Feb-10 10:58N 49°07' W 123°05'0 0.0
2018-Feb-10 10:28N 49°07' W 123°05'0 0.0
2018-Feb-10 09:58N 49°07' W 123°05'0 0.0
2018-Feb-10 09:28N 49°07' W 123°05'0 0.0
2018-Feb-10 08:58N 49°07' W 123°05'0 0.0
2018-Feb-10 08:28N 49°07' W 123°05'0 0.0
2018-Feb-10 07:58N 49°07' W 123°05'0 0.0
2018-Feb-10 07:28N 49°07' W 123°05'0 0.0
2018-Feb-10 06:58N 49°07' W 123°05'0 0.0
2018-Feb-10 06:28N 49°07' W 123°05'0 0.0
2018-Feb-10 05:58N 49°07' W 123°05'0 0.0
2018-Feb-10 05:28N 49°07' W 123°05'0 0.0
2018-Feb-10 04:58N 49°07' W 123°05'0 0.0
2018-Feb-10 04:28N 49°07' W 123°05'0 0.0
2018-Feb-10 03:58N 49°07' W 123°05'0 0.0
2018-Feb-10 03:28N 49°07' W 123°05'0 0.0
2018-Feb-10 02:58N 49°07' W 123°05'0 0.0
2018-Feb-10 02:28N 49°07' W 123°05'0 0.0
2018-Feb-10 01:58N 49°07' W 123°05'0 0.0
2018-Feb-10 01:28N 49°07' W 123°05'0 0.0
2018-Feb-10 00:58N 49°07' W 123°05'0 0.0
2018-Feb-10 00:28N 49°07' W 123°05'0 0.0
2018-Feb-09 23:58N 49°07' W 123°05'0 0.0
2018-Feb-09 23:28N 49°07' W 123°05'0 0.0
2018-Feb-09 22:58N 49°07' W 123°05'0 0.0
2018-Feb-09 22:46N 49°07' W 123°05'  
Track history (hours):
 
Tides and Currents Weather Stations Pressure Air Temp Water Temp Dewpoint Dewpoint Depression Visibility Wind Speed Wind Dir Waves Ship Positions

Queen Of Oak Bay

Last reported at 2018-Feb-19 14:30 UTC. Time now 2018-Feb-19 14:36 UTC.
Position N 49°21' W 123°19'.

Length 139 m; draft 5.6 m.

Type: Passenger vessel. MMSI: 316001257.

Date/timePositionNaut miles runAvg speedWind from/ knotsBaromVisibWave heightAir tempDewpointWater temp
2018-Feb-19 14:30N 49°21' W 123°19'2 4.1
2018-Feb-19 13:58N 49°23' W 123°16'0 0.0
2018-Feb-19 13:30N 49°23' W 123°16'0 0.0
2018-Feb-19 12:54N 49°23' W 123°16'0 0.0
2018-Feb-19 12:30N 49°23' W 123°16'0 0.0
2018-Feb-19 07:24N 49°23' W 123°16'0 0.0
2018-Feb-19 06:06N 49°23' W 123°16'0 0.0
2018-Feb-19 05:48N 49°23' W 123°16'0 0.0
2018-Feb-19 05:05N 49°23' W 123°16'0 2.4
2018-Feb-19 04:58N 49°23' W 123°16'612.5
2018-Feb-19 04:30N 49°17' W 123°19'917.2
2018-Feb-19 04:00N 49°09' W 123°20'916.2
2018-Feb-19 03:27N 49°01' W 123°14'4 8.0
2018-Feb-19 02:57N 49°00' W 123°08'0 0.0
2018-Feb-19 02:30N 49°00' W 123°08'0 0.0
2018-Feb-19 02:00N 49°00' W 123°08'0 0.0
2018-Feb-19 01:30N 49°00' W 123°08'0 0.0
2018-Feb-19 01:00N 49°00' W 123°08'0 0.0
2018-Feb-19 00:30N 49°00' W 123°08'0 0.0
2018-Feb-18 23:51N 49°00' W 123°08'0 0.0
2018-Feb-18 23:27N 49°00' W 123°08'0 0.0
2018-Feb-18 22:51N 49°00' W 123°08'0 0.0
2018-Feb-18 22:27N 49°00' W 123°08'0 0.0
2018-Feb-18 22:00N 49°00' W 123°08'0 0.0
2018-Feb-18 21:30N 49°00' W 123°08'0 0.0
2018-Feb-18 20:57N 49°00' W 123°08'0 0.0
2018-Feb-18 20:30N 49°00' W 123°08'0 0.0
2018-Feb-18 19:57N 49°00' W 123°08'0 0.0
2018-Feb-18 19:27N 49°00' W 123°08'0 0.0
2018-Feb-18 18:51N 49°00' W 123°08'0 0.0
2018-Feb-18 18:30N 49°00' W 123°08'0 0.0
2018-Feb-18 18:00N 49°00' W 123°08'0 0.0
2018-Feb-18 17:21N 49°00' W 123°08'0 0.0
2018-Feb-18 15:15N 49°00' W 123°08'0 0.0
2018-Feb-18 15:00N 49°00' W 123°08'0 0.0
2018-Feb-18 14:30N 49°00' W 123°08'0 0.0
2018-Feb-18 14:00N 49°00' W 123°08'0 0.0
2018-Feb-18 13:27N 49°00' W 123°08'0 0.0
2018-Feb-18 12:57N 49°00' W 123°08'0 0.0
2018-Feb-18 12:27N 49°00' W 123°08'0 0.0
2018-Feb-18 11:57N 49°00' W 123°08'0 0.0
2018-Feb-18 11:15N 49°00' W 123°08'0 0.0
2018-Feb-18 10:57N 49°00' W 123°08'0 0.0
2018-Feb-18 10:27N 49°00' W 123°08'0 0.0
2018-Feb-18 09:57N 49°00' W 123°08'0 0.0
2018-Feb-18 09:27N 49°00' W 123°08'0 0.0
2018-Feb-18 08:57N 49°00' W 123°08'0 0.0
2018-Feb-18 08:30N 49°00' W 123°08'0 0.0
2018-Feb-18 08:00N 49°00' W 123°08'0 0.0
2018-Feb-18 07:15N 49°00' W 123°08'0 0.0
2018-Feb-18 06:48N 49°00' W 123°08'0 0.0
2018-Feb-18 06:30N 49°00' W 123°08'0 0.0
2018-Feb-18 06:00N 49°00' W 123°08'0 0.0
2018-Feb-18 05:27N 49°00' W 123°08'0 0.0
2018-Feb-18 05:00N 49°00' W 123°08'0 0.0
2018-Feb-18 04:30N 49°00' W 123°08'0 0.0
2018-Feb-18 04:00N 49°00' W 123°08'0 0.0
2018-Feb-18 03:30N 49°00' W 123°08'0 0.0
2018-Feb-18 02:54N 49°00' W 123°08'0 0.0
2018-Feb-18 02:30N 49°00' W 123°08'0 0.0
2018-Feb-18 02:00N 49°00' W 123°08'0 0.6
2018-Feb-18 01:31N 49°00' W 123°08'918.0
2018-Feb-18 01:00N 48°59' W 123°22'2 4.6
2018-Feb-18 00:30N 48°58' W 123°19'510.4
2018-Feb-17 23:59N 49°01' W 123°25'1020.3
2018-Feb-17 23:30N 49°09' W 123°35'612.0
2018-Feb-17 22:59N 49°14' W 123°40'918.6
2018-Feb-17 22:30N 49°17' W 123°27'611.5
2018-Feb-17 22:00N 49°16' W 123°19'918.5
2018-Feb-17 21:30N 49°06' W 123°21'816.1
2018-Feb-17 21:00N 48°60' W 123°14'4 7.9
2018-Feb-17 20:30N 49°00' W 123°08'0 0.1
2018-Feb-17 20:00N 49°00' W 123°08'5 9.8
2018-Feb-17 19:30N 49°02' W 123°15'510.1
2018-Feb-17 19:01N 49°07' W 123°17'612.2
2018-Feb-17 18:30N 49°06' W 123°08'2 3.8
2018-Feb-17 18:00N 49°07' W 123°05'0 0.3
2018-Feb-17 17:25N 49°07' W 123°05'0 0.0
2018-Feb-17 16:55N 49°07' W 123°05'0 0.0
2018-Feb-17 16:25N 49°07' W 123°05'0 0.0
2018-Feb-17 15:55N 49°07' W 123°05'0 0.0
2018-Feb-17 15:25N 49°07' W 123°05'0 0.0
2018-Feb-17 14:55N 49°07' W 123°05'0 0.0
2018-Feb-17 14:25N 49°07' W 123°05'0 0.0
2018-Feb-17 13:55N 49°07' W 123°05'0 0.0
2018-Feb-17 13:25N 49°07' W 123°05'0 0.0
2018-Feb-17 12:55N 49°07' W 123°05'0 0.0
2018-Feb-17 12:25N 49°07' W 123°05'0 0.0
2018-Feb-17 11:55N 49°07' W 123°05'0 0.0
2018-Feb-17 11:25N 49°07' W 123°05'0 0.0
2018-Feb-17 10:55N 49°07' W 123°05'0 0.0
2018-Feb-17 10:25N 49°07' W 123°05'0 0.0
2018-Feb-17 09:55N 49°07' W 123°05'0 0.0
2018-Feb-17 09:25N 49°07' W 123°05'0 0.0
2018-Feb-17 08:55N 49°07' W 123°05'0 0.0
2018-Feb-17 08:25N 49°07' W 123°05'0 0.0
2018-Feb-17 07:55N 49°07' W 123°05'0 0.0
2018-Feb-17 07:25N 49°07' W 123°05'0 0.0
2018-Feb-17 06:55N 49°07' W 123°05'0 0.0
2018-Feb-17 06:25N 49°07' W 123°05'0 0.0
2018-Feb-17 05:55N 49°07' W 123°05'0 0.0
2018-Feb-17 05:25N 49°07' W 123°05'0 0.0
2018-Feb-17 04:55N 49°07' W 123°05'0 0.0
2018-Feb-17 04:25N 49°07' W 123°05'0 0.0
2018-Feb-17 03:55N 49°07' W 123°05'0 0.0
2018-Feb-17 03:25N 49°07' W 123°05'0 0.0
2018-Feb-17 02:55N 49°07' W 123°05'0 0.0
2018-Feb-17 02:25N 49°07' W 123°05'0 0.0
2018-Feb-17 01:55N 49°07' W 123°05'0 0.0
2018-Feb-17 01:25N 49°07' W 123°05'0 0.0
2018-Feb-17 00:55N 49°07' W 123°05'0 0.0
2018-Feb-17 00:25N 49°07' W 123°05'0 0.0
2018-Feb-16 23:55N 49°07' W 123°05'0 0.0
2018-Feb-16 23:25N 49°07' W 123°05'0 0.1
2018-Feb-16 22:55N 49°07' W 123°05'0 0.0
2018-Feb-16 22:25N 49°07' W 123°05'0 0.0
2018-Feb-16 21:55N 49°07' W 123°05'0 0.0
2018-Feb-16 21:25N 49°07' W 123°05'0 0.0
2018-Feb-16 20:55N 49°07' W 123°05'0 0.0
2018-Feb-16 20:25N 49°07' W 123°05'0 0.0
2018-Feb-16 19:55N 49°07' W 123°05'0 0.0
2018-Feb-16 19:25N 49°07' W 123°05'0 0.0
2018-Feb-16 18:55N 49°07' W 123°05'0 0.0
2018-Feb-16 18:25N 49°07' W 123°05'0 0.0
2018-Feb-16 17:55N 49°07' W 123°05'0 0.0
2018-Feb-16 17:25N 49°07' W 123°05'0 0.0
2018-Feb-16 16:55N 49°07' W 123°05'0 0.0
2018-Feb-16 16:25N 49°07' W 123°05'0 0.0
2018-Feb-16 15:55N 49°07' W 123°05'0 0.0
2018-Feb-16 15:25N 49°07' W 123°05'0 0.0
2018-Feb-16 14:55N 49°07' W 123°05'0 0.0
2018-Feb-16 14:25N 49°07' W 123°05'0 0.0
2018-Feb-16 13:55N 49°07' W 123°05'0 0.0
2018-Feb-16 13:25N 49°07' W 123°05'0 0.0
2018-Feb-16 12:55N 49°07' W 123°05'0 0.0
2018-Feb-16 12:25N 49°07' W 123°05'0 0.0
2018-Feb-16 11:55N 49°07' W 123°05'0 0.0
2018-Feb-16 11:25N 49°07' W 123°05'0 0.0
2018-Feb-16 10:55N 49°07' W 123°05'0 0.0
2018-Feb-16 10:25N 49°07' W 123°05'0 0.0
2018-Feb-16 09:55N 49°07' W 123°05'0 0.0
2018-Feb-16 09:25N 49°07' W 123°05'0 0.0
2018-Feb-16 08:55N 49°07' W 123°05'0 0.0
2018-Feb-16 08:25N 49°07' W 123°05'0 0.0
2018-Feb-16 07:55N 49°07' W 123°05'0 0.0
2018-Feb-16 07:25N 49°07' W 123°05'0 0.0
2018-Feb-16 06:55N 49°07' W 123°05'0 0.0
2018-Feb-16 06:25N 49°07' W 123°05'0 0.0
2018-Feb-16 05:55N 49°07' W 123°05'0 0.0
2018-Feb-16 05:25N 49°07' W 123°05'0 0.0
2018-Feb-16 04:55N 49°07' W 123°05'0 0.0
2018-Feb-16 04:25N 49°07' W 123°05'0 0.0
2018-Feb-16 03:55N 49°07' W 123°05'0 0.0
2018-Feb-16 03:25N 49°07' W 123°05'0 0.0
2018-Feb-16 02:55N 49°07' W 123°05'0 0.0
2018-Feb-16 02:25N 49°07' W 123°05'0 0.0
2018-Feb-16 01:55N 49°07' W 123°05'0 0.0
2018-Feb-16 01:25N 49°07' W 123°05'0 0.0
2018-Feb-16 00:55N 49°07' W 123°05'0 0.0
2018-Feb-16 00:25N 49°07' W 123°05'0 0.0
2018-Feb-15 23:55N 49°07' W 123°05'0 0.1
2018-Feb-15 23:19N 49°07' W 123°05'0 0.0
2018-Feb-15 22:55N 49°07' W 123°05'0 0.1
2018-Feb-15 22:25N 49°07' W 123°05'0 0.0
2018-Feb-15 21:55N 49°07' W 123°05'0 0.0
2018-Feb-15 21:25N 49°07' W 123°05'0 0.1
2018-Feb-15 20:55N 49°07' W 123°05'0 0.1
2018-Feb-15 20:25N 49°07' W 123°05'0 0.0
2018-Feb-15 19:55N 49°07' W 123°05'0 0.0
2018-Feb-15 19:25N 49°07' W 123°05'0 0.1
2018-Feb-15 18:55N 49°07' W 123°05'0 0.0
2018-Feb-15 18:25N 49°07' W 123°05'0 0.0
2018-Feb-15 17:55N 49°07' W 123°05'0 0.0
2018-Feb-15 17:25N 49°07' W 123°05'0 0.0
2018-Feb-15 16:55N 49°07' W 123°05'0 0.1
2018-Feb-15 16:25N 49°07' W 123°05'0 0.1
2018-Feb-15 15:55N 49°07' W 123°05'0 0.0
2018-Feb-15 15:25N 49°07' W 123°05'0 0.0
2018-Feb-15 14:55N 49°07' W 123°05'0 0.0
2018-Feb-15 14:25N 49°07' W 123°05'0 0.0
2018-Feb-15 13:55N 49°07' W 123°05'0 0.0
2018-Feb-15 13:25N 49°07' W 123°05'0 0.0
2018-Feb-15 12:55N 49°07' W 123°05'0 0.0
2018-Feb-15 12:25N 49°07' W 123°05'0 0.0
2018-Feb-15 11:55N 49°07' W 123°05'0 0.0
2018-Feb-15 11:25N 49°07' W 123°05'0 0.0
2018-Feb-15 10:55N 49°07' W 123°05'0 0.0
2018-Feb-15 10:25N 49°07' W 123°05'0 0.0
2018-Feb-15 09:55N 49°07' W 123°05'0 0.0
2018-Feb-15 09:25N 49°07' W 123°05'0 0.0
2018-Feb-15 08:55N 49°07' W 123°05'0 0.0
2018-Feb-15 08:25N 49°07' W 123°05'0 0.0
2018-Feb-15 07:55N 49°07' W 123°05'0 0.0
2018-Feb-15 07:25N 49°07' W 123°05'0 0.0
2018-Feb-15 06:55N 49°07' W 123°05'0 0.0
2018-Feb-15 06:25N 49°07' W 123°05'0 0.0
2018-Feb-15 05:55N 49°07' W 123°05'0 0.0
2018-Feb-15 05:25N 49°07' W 123°05'0 0.0
2018-Feb-15 04:55N 49°07' W 123°05'0 0.0
2018-Feb-15 04:25N 49°07' W 123°05'0 0.0
2018-Feb-15 03:55N 49°07' W 123°05'0 0.0
2018-Feb-15 03:25N 49°07' W 123°05'0 0.0
2018-Feb-15 02:55N 49°07' W 123°05'0 0.0
2018-Feb-15 02:25N 49°07' W 123°05'0 0.0
2018-Feb-15 01:55N 49°07' W 123°05'0 0.0
2018-Feb-15 01:25N 49°07' W 123°05'0 0.0
2018-Feb-15 00:55N 49°07' W 123°05'0 0.0
2018-Feb-15 00:25N 49°07' W 123°05'0 0.0
2018-Feb-14 23:55N 49°07' W 123°05'0 0.0
2018-Feb-14 23:25N 49°07' W 123°05'0 0.0
2018-Feb-14 22:55N 49°07' W 123°05'0 0.1
2018-Feb-14 22:25N 49°07' W 123°05'0 0.0
2018-Feb-14 21:55N 49°07' W 123°05'0 0.0
2018-Feb-14 21:25N 49°07' W 123°05'0 0.0
2018-Feb-14 20:55N 49°07' W 123°05'0 0.0
2018-Feb-14 20:25N 49°07' W 123°05'0 0.0
2018-Feb-14 19:55N 49°07' W 123°05'0 0.0
2018-Feb-14 19:25N 49°07' W 123°05'0 0.0
2018-Feb-14 18:55N 49°07' W 123°05'0 0.0
2018-Feb-14 18:25N 49°07' W 123°05'0 0.0
2018-Feb-14 17:55N 49°07' W 123°05'0 0.0
2018-Feb-14 17:29N 49°07' W 123°05'0 0.0
2018-Feb-14 16:59N 49°07' W 123°05'0 0.0
2018-Feb-14 16:29N 49°07' W 123°05'0 0.0
2018-Feb-14 15:59N 49°07' W 123°05'0 0.0
2018-Feb-14 15:26N 49°07' W 123°05'0 0.0
2018-Feb-14 14:59N 49°07' W 123°05'0 0.0
2018-Feb-14 14:29N 49°07' W 123°05'0 0.0
2018-Feb-14 13:59N 49°07' W 123°05'0 0.0
2018-Feb-14 13:29N 49°07' W 123°05'0 0.0
2018-Feb-14 12:59N 49°07' W 123°05'0 0.0
2018-Feb-14 12:29N 49°07' W 123°05'0 0.0
2018-Feb-14 11:58N 49°07' W 123°05'0 0.0
2018-Feb-14 11:28N 49°07' W 123°05'0 0.0
2018-Feb-14 10:58N 49°07' W 123°05'0 0.0
2018-Feb-14 10:28N 49°07' W 123°05'0 0.0
2018-Feb-14 09:58N 49°07' W 123°05'0 0.0
2018-Feb-14 09:28N 49°07' W 123°05'0 0.0
2018-Feb-14 08:58N 49°07' W 123°05'0 0.0
2018-Feb-14 08:28N 49°07' W 123°05'0 0.0
2018-Feb-14 07:58N 49°07' W 123°05'0 0.0
2018-Feb-14 07:28N 49°07' W 123°05'0 0.0
2018-Feb-14 06:58N 49°07' W 123°05'0 0.0
2018-Feb-14 06:28N 49°07' W 123°05'0 0.0
2018-Feb-14 05:58N 49°07' W 123°05'0 0.0
2018-Feb-14 05:28N 49°07' W 123°05'0 0.0
2018-Feb-14 04:58N 49°07' W 123°05'0 0.0
2018-Feb-14 04:28N 49°07' W 123°05'0 0.0
2018-Feb-14 03:58N 49°07' W 123°05'0 0.0
2018-Feb-14 03:28N 49°07' W 123°05'0 0.0
2018-Feb-14 02:58N 49°07' W 123°05'0 0.0
2018-Feb-14 02:28N 49°07' W 123°05'0 0.0
2018-Feb-14 01:58N 49°07' W 123°05'0 0.0
2018-Feb-14 01:28N 49°07' W 123°05'0 0.0
2018-Feb-14 00:58N 49°07' W 123°05'0 0.0
2018-Feb-14 00:28N 49°07' W 123°05'0 0.0
2018-Feb-13 23:58N 49°07' W 123°05'0 0.0
2018-Feb-13 23:28N 49°07' W 123°05'0 0.0
2018-Feb-13 22:58N 49°07' W 123°05'0 0.0
2018-Feb-13 22:28N 49°07' W 123°05'0 0.0
2018-Feb-13 21:58N 49°07' W 123°05'0 0.0
2018-Feb-13 21:28N 49°07' W 123°05'0 0.0
2018-Feb-13 20:58N 49°07' W 123°05'0 0.0
2018-Feb-13 20:28N 49°07' W 123°05'0 0.0
2018-Feb-13 19:58N 49°07' W 123°05'0 0.0
2018-Feb-13 19:28N 49°07' W 123°05'0 0.0
2018-Feb-13 18:52N 49°07' W 123°05'0 0.0
2018-Feb-13 18:28N 49°07' W 123°05'0 0.0
2018-Feb-13 17:52N 49°07' W 123°05'0 0.0
2018-Feb-13 17:28N 49°07' W 123°05'0 0.0
2018-Feb-13 16:58N 49°07' W 123°05'0 0.0
2018-Feb-13 16:28N 49°07' W 123°05'0 0.0
2018-Feb-13 15:58N 49°07' W 123°05'0 0.0
2018-Feb-13 15:28N 49°07' W 123°05'0 0.0
2018-Feb-13 14:58N 49°07' W 123°05'0 0.0
2018-Feb-13 14:28N 49°07' W 123°05'0 0.0
2018-Feb-13 13:58N 49°07' W 123°05'0 0.0
2018-Feb-13 13:28N 49°07' W 123°05'0 0.0
2018-Feb-13 12:58N 49°07' W 123°05'0 0.0
2018-Feb-13 12:28N 49°07' W 123°05'0 0.0
2018-Feb-13 11:58N 49°07' W 123°05'0 0.0
2018-Feb-13 11:28N 49°07' W 123°05'0 0.0
2018-Feb-13 10:58N 49°07' W 123°05'0 0.0
2018-Feb-13 10:28N 49°07' W 123°05'0 0.0
2018-Feb-13 09:58N 49°07' W 123°05'0 0.0
2018-Feb-13 09:28N 49°07' W 123°05'0 0.0
2018-Feb-13 08:58N 49°07' W 123°05'0 0.0
2018-Feb-13 08:28N 49°07' W 123°05'0 0.0
2018-Feb-13 07:58N 49°07' W 123°05'0 0.0
2018-Feb-13 07:28N 49°07' W 123°05'0 0.0
2018-Feb-13 06:58N 49°07' W 123°05'0 0.0
2018-Feb-13 06:28N 49°07' W 123°05'0 0.0
2018-Feb-13 05:58N 49°07' W 123°05'0 0.0
2018-Feb-13 05:28N 49°07' W 123°05'0 0.0
2018-Feb-13 04:58N 49°07' W 123°05'0 0.0
2018-Feb-13 04:28N 49°07' W 123°05'0 0.0
2018-Feb-13 03:58N 49°07' W 123°05'0 0.0
2018-Feb-13 03:28N 49°07' W 123°05'0 0.0
2018-Feb-13 02:52N 49°07' W 123°05'0 0.0
2018-Feb-13 02:28N 49°07' W 123°05'0 0.0
2018-Feb-13 01:58N 49°07' W 123°05'0 0.0
2018-Feb-13 01:28N 49°07' W 123°05'0 0.0
2018-Feb-13 00:58N 49°07' W 123°05'0 0.0
2018-Feb-13 00:28N 49°07' W 123°05'0 0.0
2018-Feb-12 23:58N 49°07' W 123°05'0 0.0
2018-Feb-12 23:28N 49°07' W 123°05'0 0.0
2018-Feb-12 22:58N 49°07' W 123°05'0 0.0
2018-Feb-12 22:28N 49°07' W 123°05'0 0.0
2018-Feb-12 21:58N 49°07' W 123°05'0 0.0
2018-Feb-12 21:28N 49°07' W 123°05'0 0.0
2018-Feb-12 20:58N 49°07' W 123°05'0 0.0
2018-Feb-12 20:28N 49°07' W 123°05'0 0.0
2018-Feb-12 19:58N 49°07' W 123°05'0 0.0
2018-Feb-12 19:28N 49°07' W 123°05'0 0.0
2018-Feb-12 18:58N 49°07' W 123°05'0 0.0
2018-Feb-12 18:28N 49°07' W 123°05'0 0.0
2018-Feb-12 17:58N 49°07' W 123°05'0 0.0
2018-Feb-12 17:28N 49°07' W 123°05'0 0.0
2018-Feb-12 16:58N 49°07' W 123°05'0 0.0
2018-Feb-12 16:28N 49°07' W 123°05'0 0.0
2018-Feb-12 15:58N 49°07' W 123°05'0 0.0
2018-Feb-12 15:16N 49°07' W 123°05'0 0.0
2018-Feb-12 14:58N 49°07' W 123°05'0 0.0
2018-Feb-12 14:28N 49°07' W 123°05'0 0.0
2018-Feb-12 13:58N 49°07' W 123°05'0 0.0
2018-Feb-12 13:28N 49°07' W 123°05'0 0.0
2018-Feb-12 12:58N 49°07' W 123°05'0 0.0
2018-Feb-12 12:28N 49°07' W 123°05'0 0.0
2018-Feb-12 11:58N 49°07' W 123°05'0 0.0
2018-Feb-12 11:28N 49°07' W 123°05'0 0.0
2018-Feb-12 10:58N 49°07' W 123°05'0 0.0
2018-Feb-12 10:28N 49°07' W 123°05'0 0.0
2018-Feb-12 09:58N 49°07' W 123°05'0 0.0
2018-Feb-12 09:28N 49°07' W 123°05'0 0.0
2018-Feb-12 08:58N 49°07' W 123°05'0 0.0
2018-Feb-12 08:28N 49°07' W 123°05'0 0.0
2018-Feb-12 07:58N 49°07' W 123°05'0 0.0
2018-Feb-12 07:28N 49°07' W 123°05'0 0.0
2018-Feb-12 06:58N 49°07' W 123°05'0 0.0
2018-Feb-12 06:28N 49°07' W 123°05'0 0.0
2018-Feb-12 05:58N 49°07' W 123°05'0 0.0
2018-Feb-12 05:28N 49°07' W 123°05'0 0.0
2018-Feb-12 04:58N 49°07' W 123°05'0 0.0
2018-Feb-12 04:28N 49°07' W 123°05'0 0.0
2018-Feb-12 03:58N 49°07' W 123°05'0 0.0
2018-Feb-12 03:28N 49°07' W 123°05'0 0.0
2018-Feb-12 02:58N 49°07' W 123°05'0 0.0
2018-Feb-12 02:28N 49°07' W 123°05'0 0.0
2018-Feb-12 01:58N 49°07' W 123°05'0 0.0
2018-Feb-12 01:22N 49°07' W 123°05'0 0.0
2018-Feb-12 00:46N 49°07' W 123°05'0 0.0
2018-Feb-12 00:28N 49°07' W 123°05'0 0.0
2018-Feb-11 23:58N 49°07' W 123°05'0 0.0
2018-Feb-11 23:28N 49°07' W 123°05'0 0.0
2018-Feb-11 22:58N 49°07' W 123°05'0 0.0
2018-Feb-11 22:16N 49°07' W 123°05'0 0.0
2018-Feb-11 21:58N 49°07' W 123°05'0 0.0
2018-Feb-11 21:28N 49°07' W 123°05'0 0.0
2018-Feb-11 20:58N 49°07' W 123°05'0 0.0
2018-Feb-11 20:28N 49°07' W 123°05'0 0.0
2018-Feb-11 19:58N 49°07' W 123°05'0 0.0
2018-Feb-11 19:28N 49°07' W 123°05'0 0.0
2018-Feb-11 18:58N 49°07' W 123°05'0 0.0
2018-Feb-11 18:28N 49°07' W 123°05'0 0.0
2018-Feb-11 17:58N 49°07' W 123°05'0 0.0
2018-Feb-11 17:28N 49°07' W 123°05'0 0.0
2018-Feb-11 16:58N 49°07' W 123°05'0 0.0
2018-Feb-11 16:28N 49°07' W 123°05'0 0.0
2018-Feb-11 15:58N 49°07' W 123°05'0 0.0
2018-Feb-11 15:28N 49°07' W 123°05'0 0.0
2018-Feb-11 14:58N 49°07' W 123°05'0 0.0
2018-Feb-11 14:28N 49°07' W 123°05'0 0.0
2018-Feb-11 13:58N 49°07' W 123°05'0 0.0
2018-Feb-11 13:28N 49°07' W 123°05'0 0.0
2018-Feb-11 12:58N 49°07' W 123°05'0 0.0
2018-Feb-11 12:28N 49°07' W 123°05'0 0.0
2018-Feb-11 11:58N 49°07' W 123°05'0 0.0
2018-Feb-11 11:28N 49°07' W 123°05'0 0.0
2018-Feb-11 10:58N 49°07' W 123°05'0 0.0
2018-Feb-11 10:28N 49°07' W 123°05'0 0.0
2018-Feb-11 09:58N 49°07' W 123°05'0 0.0
2018-Feb-11 09:28N 49°07' W 123°05'0 0.0
2018-Feb-11 08:58N 49°07' W 123°05'0 0.0
2018-Feb-11 08:28N 49°07' W 123°05'0 0.0
2018-Feb-11 07:52N 49°07' W 123°05'0 0.0
2018-Feb-11 07:28N 49°07' W 123°05'0 0.0
2018-Feb-11 06:58N 49°07' W 123°05'0 0.0
2018-Feb-11 06:28N 49°07' W 123°05'0 0.0
2018-Feb-11 05:58N 49°07' W 123°05'0 0.0
2018-Feb-11 05:28N 49°07' W 123°05'0 0.0
2018-Feb-11 04:58N 49°07' W 123°05'0 0.0
2018-Feb-11 04:28N 49°07' W 123°05'0 0.0
2018-Feb-11 03:58N 49°07' W 123°05'0 0.0
2018-Feb-11 03:28N 49°07' W 123°05'0 0.0
2018-Feb-11 02:58N 49°07' W 123°05'0 0.0
2018-Feb-11 02:28N 49°07' W 123°05'0 0.0
2018-Feb-11 01:58N 49°07' W 123°05'0 0.0
2018-Feb-11 01:28N 49°07' W 123°05'0 0.0
2018-Feb-11 00:58N 49°07' W 123°05'0 0.0
2018-Feb-11 00:22N 49°07' W 123°05'0 0.0
2018-Feb-10 23:58N 49°07' W 123°05'0 0.0
2018-Feb-10 23:28N 49°07' W 123°05'0 0.0
2018-Feb-10 22:58N 49°07' W 123°05'0 0.0
2018-Feb-10 22:28N 49°07' W 123°05'0 0.0
2018-Feb-10 21:58N 49°07' W 123°05'0 0.0
2018-Feb-10 21:28N 49°07' W 123°05'0 0.0
2018-Feb-10 20:58N 49°07' W 123°05'0 0.0
2018-Feb-10 20:28N 49°07' W 123°05'0 0.0
2018-Feb-10 19:58N 49°07' W 123°05'0 0.0
2018-Feb-10 19:28N 49°07' W 123°05'0 0.0
2018-Feb-10 18:58N 49°07' W 123°05'0 0.0
2018-Feb-10 18:28N 49°07' W 123°05'0 0.0
2018-Feb-10 17:58N 49°07' W 123°05'0 0.0
2018-Feb-10 17:28N 49°07' W 123°05'0 0.0
2018-Feb-10 16:58N 49°07' W 123°05'0 0.0
2018-Feb-10 16:28N 49°07' W 123°05'0 0.0
2018-Feb-10 15:58N 49°07' W 123°05'0 0.0
2018-Feb-10 15:28N 49°07' W 123°05'0 0.0
2018-Feb-10 14:58N 49°07' W 123°05'0 0.0
2018-Feb-10 14:28N 49°07' W 123°05'0 0.0
2018-Feb-10 13:58N 49°07' W 123°05'0 0.0
2018-Feb-10 13:28N 49°07' W 123°05'0 0.0
2018-Feb-10 12:58N 49°07' W 123°05'0 0.0
2018-Feb-10 12:28N 49°07' W 123°05'0 0.0
2018-Feb-10 11:58N 49°07' W 123°05'0 0.0
2018-Feb-10 11:28N 49°07' W 123°05'0 0.0
2018-Feb-10 10:58N 49°07' W 123°05'0 0.0
2018-Feb-10 10:28N 49°07' W 123°05'0 0.0
2018-Feb-10 09:58N 49°07' W 123°05'0 0.0
2018-Feb-10 09:28N 49°07' W 123°05'0 0.0
2018-Feb-10 08:58N 49°07' W 123°05'0 0.0
2018-Feb-10 08:28N 49°07' W 123°05'0 0.0
2018-Feb-10 07:58N 49°07' W 123°05'0 0.0
2018-Feb-10 07:28N 49°07' W 123°05'0 0.0
2018-Feb-10 06:58N 49°07' W 123°05'0 0.0
2018-Feb-10 06:28N 49°07' W 123°05'0 0.0
2018-Feb-10 05:58N 49°07' W 123°05'0 0.0
2018-Feb-10 05:28N 49°07' W 123°05'0 0.0
2018-Feb-10 04:58N 49°07' W 123°05'0 0.0
2018-Feb-10 04:28N 49°07' W 123°05'0 0.0
2018-Feb-10 03:58N 49°07' W 123°05'0 0.0
2018-Feb-10 03:28N 49°07' W 123°05'0 0.0
2018-Feb-10 02:58N 49°07' W 123°05'0 0.0
2018-Feb-10 02:28N 49°07' W 123°05'0 0.0
2018-Feb-10 01:58N 49°07' W 123°05'0 0.0
2018-Feb-10 01:28N 49°07' W 123°05'0 0.0
2018-Feb-10 00:58N 49°07' W 123°05'0 0.0
2018-Feb-10 00:28N 49°07' W 123°05'0 0.0
2018-Feb-09 23:58N 49°07' W 123°05'0 0.0
2018-Feb-09 23:28N 49°07' W 123°05'0 0.0
2018-Feb-09 22:58N 49°07' W 123°05'0 0.0
2018-Feb-09 22:46N 49°07' W 123°05'  

Dump ship's entire track history